Data for 06/04/2018

Time Sea-Level Adjusted Pressure Absolute Pressure Temperature Relative Humidity Dew Point   
(mb) (inHg) (mb) (inHg) (C) (F) (%) (C) (F)
00:05 1017 30.03 846 24.98 16 60.9 55 7.1 44.8
00:10 1017 30.03 846 24.98 15.9 60.7 56 7.2 45
00:15 1017 30.03 846 24.98 15.8 60.4 57 7.5 45.4
00:20 1017 30.03 846 24.98 15.6 60 58 7.3 45.2
00:25 1017 30.03 846 24.98 15.5 59.8 59 7.5 45.4
00:30 1017 30.03 846 24.98 15.5 59.8 59 7.5 45.5
00:35 1017 30.03 846 24.98 15.4 59.7 60 7.6 45.7
00:40 1017 30.03 846 24.98 15.1 59.1 60 7.3 45.2
00:45 1017 30.03 846 24.98 15 59 60 7.3 45.1
00:50 1016 30 846 24.98 14.9 58.9 59 7.1 44.8
00:55 1016 30 846 24.98 14.9 58.8 59 7.1 44.7
01:00 1016 30 846 24.98 14.9 58.9 59 7 44.5
01:05 1016 30 846 24.98 15.2 59.4 57 6.8 44.2
01:10 1016 30 846 24.98 15.3 59.6 56 6.8 44.2
01:15 1016 30 846 24.98 15.3 59.6 56 6.8 44.2
01:20 1016 30 846 24.98 15.1 59.3 57 6.7 44.1
01:25 1016 30 845 24.95 15.1 59.3 57 6.7 44
01:30 1016 30 845 24.95 15.3 59.5 56 6.6 43.9
01:35 1016 30 845 24.95 15.1 59.2 56 6.6 43.9
01:40 1016 30 845 24.95 14.9 58.8 56 6.3 43.3
01:45 1016 30 845 24.95 14.6 58.3 57 6.2 43.2
01:50 1016 30 845 24.95 14.6 58.2 57 6.3 43.4
01:55 1016 30 845 24.95 14.6 58.2 57 6.3 43.4
02:00 1016 30 845 24.95 14.6 58.3 57 6.4 43.5
02:05 1016 30 845 24.95 14.5 58.2 58 6.4 43.5
02:10 1016 30 845 24.95 14.5 58.1 58 6.4 43.5
02:15 1016 30 845 24.95 14.4 57.9 58 6.4 43.5
02:20 1016 30 845 24.95 14.4 57.8 58 6.2 43.2
02:25 1016 30 845 24.95 14.3 57.7 59 6.4 43.5
02:30 1016 30 845 24.95 14 57.3 59 6.2 43.2
02:35 1016 30 845 24.95 14 57.2 59 6.1 43
02:40 1016 30 845 24.95 14.1 57.4 58 6.1 43
02:45 1016 30 845 24.95 14 57.1 59 6.2 43.1
02:50 1016 30 845 24.95 13.8 56.9 59 6 42.9
02:55 1016 30 845 24.95 13.7 56.7 58 5.6 42.1
03:00 1016 30 845 24.95 13.9 56.9 57 5.5 41.9
03:05 1016 30 845 24.95 13.7 56.7 56 5.3 41.5
03:10 1016 30 845 24.95 13.6 56.4 56 5.1 41.2
03:15 1016 30 845 24.95 13.5 56.3 56 4.9 40.8
03:20 1016 30 845 24.95 13.5 56.4 56 4.9 40.9
03:25 1016 30 845 24.95 13.6 56.5 55 4.8 40.7
03:30 1016 30 845 24.95 13.8 56.8 55 4.9 40.8
03:35 1016 30 845 24.95 13.7 56.7 54 4.7 40.5
03:40 1016 30 845 24.95 13.7 56.6 53 4.4 39.9
03:45 1016 30 845 24.95 13.8 56.8 53 4.3 39.8
03:50 1016 30 845 24.95 13.8 56.8 52 4.2 39.6
03:55 1016 30 845 24.95 13.7 56.6 52 4.2 39.5
04:00 1016 30 845 24.95 13.6 56.6 51 3.8 38.9
04:05 1016 30 845 24.95 13.8 56.8 51 4 39.1
04:10 1016 30 845 24.95 13.7 56.6 50 3.6 38.5
04:15 1016 30 846 24.98 13.5 56.3 51 3.6 38.5
04:20 1016 30 846 24.98 13.4 56.2 52 3.9 39.1
04:25 1016 30 846 24.98 13.5 56.3 52 4 39.2
04:30 1017 30.03 846 24.98 13.4 56.1 50 3.2 37.8
04:35 1017 30.03 846 24.98 13.4 56.1 49 3.1 37.5
04:40 1017 30.03 846 24.98 13.4 56.2 49 3 37.4
04:45 1017 30.03 846 24.98 13.4 56.1 50 3.3 38
04:50 1017 30.03 846 24.98 13.1 55.7 51 3.2 37.7
04:55 1017 30.03 846 24.98 12.8 55.1 50 2.8 37
05:00 1017 30.03 846 24.98 13.1 55.5 50 2.8 37.1
05:05 1017 30.03 846 24.98 13.3 56 49 2.9 37.2
05:10 1017 30.03 846 24.98 13.5 56.2 49 3 37.4
05:15 1017 30.03 846 24.98 13.4 56.1 51 3.5 38.3
05:20 1017 30.03 846 24.98 12.9 55.1 52 3.2 37.8
05:25 1017 30.03 846 24.98 12.7 54.9 51 2.8 37.1
05:30 1017 30.03 846 24.98 13 55.3 48 2.2 36
05:35 1017 30.03 846 24.98 13.1 55.5 49 2.8 37
05:40 1017 30.03 846 24.98 13.1 55.6 50 3 37.4
05:45 1017 30.03 846 24.98 13 55.4 53 3.6 38.5
05:50 1017 30.03 846 24.98 13.1 55.6 53 3.8 38.9
05:55 1017 30.03 846 24.98 13.1 55.6 51 3.4 38.1
06:00 1016 30 846 24.98 13.2 55.7 52 3.5 38.2
06:05 1016 30 846 24.98 13.5 56.2 50 3.2 37.8
06:10 1016 30 846 24.98 13.8 56.8 50 3.6 38.4
06:15 1016 30 846 24.98 14 57.2 49 3.6 38.4
06:20 1016 30 846 24.98 13.9 56.9 48 3 37.5
06:25 1016 30 846 24.98 14.2 57.5 46 2.9 37.2
06:30 1016 30 846 24.98 14.5 58.1 45 2.9 37.2
06:35 1016 30 846 24.98 14.8 58.6 44 2.9 37.1
06:40 1016 30 846 24.98 15.1 59.2 45 3.4 38.1
06:45 1016 30 846 24.98 15.2 59.4 45 3.5 38.3
06:50 1016 30 846 24.98 15.9 60.7 43 3.5 38.3
06:55 1016 30 846 24.98 16.1 61 42 3.4 38.2
07:00 1016 30 846 24.98 16.2 61.1 43 3.7 38.7
07:05 1016 30 846 24.98 16.5 61.7 41 3.3 37.9
07:10 1016 30 846 24.98 16.9 62.4 41 3.6 38.5
07:15 1016 30 846 24.98 17.6 63.6 42 4.5 40.1
07:20 1016 30 846 24.98 18.1 64.6 36 3 37.5
07:25 1016 30 846 24.98 18.2 64.8 38 3.6 38.5
07:30 1016 30 845 24.95 18.5 65.3 36 3.4 38.1
07:35 1016 30 845 24.95 18.5 65.3 36 3.3 38
07:40 1016 30 845 24.95 18.2 64.7 39 4.1 39.4
07:45 1016 30 845 24.95 17.8 64 41 4.4 39.9
07:50 1016 30 845 24.95 18.5 65.3 39 4.3 39.7
07:55 1016 30 845 24.95 19.3 66.8 40 5.4 41.8
08:00 1016 30 845 24.95 19.7 67.4 37 4.9 40.8
08:05 1016 30 845 24.95 19.9 67.7 34 3.8 38.9
08:10 1016 30 845 24.95 20.6 69 32 3.6 38.4
08:15 1016 30 845 24.95 20.7 69.2 33 4 39.3
08:20 1016 30 845 24.95 21.3 70.4 33 4.6 40.4
08:25 1016 30 845 24.95 21.3 70.3 32 4.3 39.8
08:30 1016 30 845 24.95 21.5 70.8 32 4.4 39.9
08:35 1016 30 845 24.95 21.3 70.4 30 3.2 37.8
08:40 1016 30 845 24.95 22 71.5 30 4 39.1
08:45 1016 30 845 24.95 22.2 72 30 4.2 39.6
08:50 1015 29.97 845 24.95 22.4 72.3 30 3.9 39.1
08:55 1015 29.97 845 24.95 22.4 72.3 31 4.5 40.1
09:00 1015 29.97 845 24.95 22.5 72.4 31 4.6 40.3
09:05 1015 29.97 844 24.92 22.8 73.1 31 4.9 40.8
09:10 1015 29.97 844 24.92 23.3 73.9 30 5.1 41.1
09:15 1015 29.97 844 24.92 23.3 73.9 31 5.3 41.5
09:20 1015 29.97 844 24.92 23.1 73.5 32 5.7 42.2
09:25 1015 29.97 844 24.92 22.4 72.3 31 4.8 40.7
09:30 1015 29.97 844 24.92 22.8 73 31 4.8 40.6
09:35 1015 29.97 844 24.92 23.3 73.9 31 5.3 41.5
09:40 1015 29.97 844 24.92 23.6 74.5 30 5.4 41.7
09:45 1015 29.97 844 24.92 23.7 74.7 30 5.4 41.8
09:50 1015 29.97 844 24.92 23.6 74.5 32 5.9 42.7
09:55 1015 29.97 844 24.92 23.3 73.9 32 5.9 42.5
10:00 1015 29.97 844 24.92 23.9 75 31 6 42.8
10:05 1015 29.97 844 24.92 23.3 74 33 6.6 43.8
10:10 1015 29.97 844 24.92 23 73.4 33 6 42.8
10:15 1015 29.97 844 24.92 23.1 73.6 33 6.3 43.4
10:20 1015 29.97 844 24.92 24.5 76 30 6 42.8
10:25 1015 29.97 844 24.92 25.4 77.7 28 5.6 42
10:30 1014 29.94 844 24.92 25.6 78.1 28 5.8 42.5
10:35 1014 29.94 844 24.92 25.4 77.7 25 4.2 39.5
10:40 1014 29.94 844 24.92 25.8 78.5 26 5.2 41.4
10:45 1014 29.94 844 24.92 26.1 79.1 25 5 40.9
10:50 1014 29.94 844 24.92 26.3 79.3 27 6.2 43.2
10:55 1014 29.94 844 24.92 26.1 78.9 25 4.9 40.9
11:00 1014 29.94 844 24.92 26.1 79 25 4.9 40.8
11:05 1014 29.94 843 24.89 26.8 80.3 26 6.2 43.2
11:10 1014 29.94 843 24.89 26.4 79.6 27 6 42.9
11:15 1014 29.94 843 24.89 26.7 80 25 5.1 41.3
11:20 1014 29.94 843 24.89 26.5 79.6 27 6.1 43
11:25 1014 29.94 843 24.89 26.6 79.8 28 6.7 44.1
11:30 1014 29.94 843 24.89 26.5 79.8 25 5.2 41.4
11:35 1014 29.94 843 24.89 27.5 81.4 22 4.3 39.8
11:40 1014 29.94 843 24.89 27.8 82 22 4.6 40.3
11:45 1014 29.94 843 24.89 27.3 81.1 23 4.5 40
11:50 1014 29.94 843 24.89 26.8 80.2 25 5.1 41.2
11:55 1014 29.94 843 24.89 27.1 80.8 20 2.7 36.9
12:00 1014 29.94 843 24.89 28.4 83.1 20 3.3 38
12:05 1014 29.94 843 24.89 28.1 82.5 22 5 40.9
12:10 1014 29.94 843 24.89 28.1 82.6 20 3.3 38
12:15 1013 29.91 843 24.89 28.6 83.5 20 3.8 38.8
12:20 1013 29.91 843 24.89 28 82.4 20 3.5 38.3
12:25 1013 29.91 842 24.86 27.4 81.4 22 3.9 39
12:30 1013 29.91 842 24.86 27.9 82.3 20 3 37.4
12:35 1013 29.91 842 24.86 28.6 83.5 20 4.1 39.3
12:40 1013 29.91 842 24.86 28 82.5 21 3.9 39
12:45 1013 29.91 842 24.86 28.7 83.6 18 2.2 35.9
12:50 1013 29.91 842 24.86 28.6 83.6 21 4.7 40.5
12:55 1013 29.91 842 24.86 28.3 82.9 22 4.7 40.5
13:00 1013 29.91 842 24.86 28.2 82.8 20 3.7 38.6
13:05 1013 29.91 842 24.86 28.6 83.5 20 3.9 39
13:10 1013 29.91 842 24.86 27.9 82.3 18 1.5 34.7
13:15 1013 29.91 842 24.86 27.5 81.6 18 1.4 34.5
13:20 1013 29.91 842 24.86 27.1 80.7 20 2.3 36.1
13:25 1013 29.91 842 24.86 26.7 80 19 1.6 34.9
13:30 1013 29.91 842 24.86 26.5 79.7 21 2.5 36.5
13:35 1013 29.91 842 24.86 26.2 79.1 19 0.7 33.2
13:40 1012 29.88 842 24.86 25.9 78.6 19 1 33.8
13:45 1012 29.88 842 24.86 25.4 77.7 20 1.3 34.3
13:50 1012 29.88 842 24.86 25.3 77.5 22 2 35.6
13:55 1012 29.88 842 24.86 25.3 77.5 21 1.5 34.6
14:00 1012 29.88 842 24.86 25.3 77.5 22 2.3 36.2
14:05 1012 29.88 842 24.86 25.3 77.6 22 2 35.6
14:10 1012 29.88 842 24.86 25.2 77.3 23 2.8 37
14:15 1012 29.88 841 24.83 25.2 77.4 22 2.5 36.5
14:20 1012 29.88 842 24.86 25.3 77.5 23 2.6 36.7
14:25 1012 29.88 842 24.86 25.2 77.3 23 2.8 37
14:30 1013 29.91 842 24.86 25.1 77.3 22 2.4 36.3
14:35 1012 29.88 842 24.86 25.1 77.2 23 2.5 36.6
14:40 1012 29.88 842 24.86 25.2 77.3 23 2.9 37.2
14:45 1012 29.88 841 24.83 25.2 77.3 22 2.4 36.3
14:50 1012 29.88 842 24.86 25.3 77.5 22 2 35.6
14:55 1012 29.88 842 24.86 25.2 77.3 22 2.2 36
15:00 1012 29.88 842 24.86 25.1 77.2 23 2.7 36.8
15:05 1012 29.88 842 24.86 25.2 77.4 24 3.7 38.6
15:10 1012 29.88 842 24.86 25 77 26 4.6 40.2
15:15 1012 29.88 841 24.83 24.9 76.7 28 5.1 41.3
15:20 1012 29.88 841 24.83 24.7 76.4 30 6.4 43.5
15:25 1012 29.88 841 24.83 24.4 75.9 30 6 42.8
15:30 1012 29.88 841 24.83 24.6 76.3 29 5.8 42.4
15:35 1012 29.88 841 24.83 25.1 77.2 25 4 39.2
15:40 1012 29.88 841 24.83 25.4 77.8 25 4.2 39.6
15:45 1012 29.88 841 24.83 25.7 78.2 24 3.6 38.6
15:50 1012 29.88 841 24.83 25.7 78.2 24 4 39.3
15:55 1012 29.88 841 24.83 25.5 77.9 22 2.6 36.7
16:00 1012 29.88 841 24.83 25.6 78.1 24 3.5 38.3
16:05 1012 29.88 841 24.83 26.1 79.1 22 2.8 37
16:10 1012 29.88 841 24.83 27 80.5 20 2.2 36
16:15 1012 29.88 841 24.83 27.9 82.1 18 1.4 34.5
16:20 1012 29.88 841 24.83 27.8 82 21 4 39.2
16:25 1012 29.88 841 24.83 27.9 82.2 21 3.7 38.6
16:30 1012 29.88 841 24.83 27 80.7 22 3.9 39.1
16:35 1012 29.88 841 24.83 26.9 80.4 21 3.2 37.8
16:40 1012 29.88 841 24.83 26.8 80.2 21 2.8 37
16:45 1012 29.88 841 24.83 26.7 80 21 2.6 36.7
16:50 1012 29.88 841 24.83 26.7 80.1 23 3.9 39.1
16:55 1012 29.88 841 24.83 26.3 79.4 23 4 39.3
17:00 1012 29.88 841 24.83 26 78.7 23 3.7 38.6
17:05 1012 29.88 841 24.83 25.9 78.6 21 2.3 36.2
17:10 1012 29.88 841 24.83 25.9 78.7 21 2 35.6
17:15 1012 29.88 841 24.83 25.9 78.6 21 2.1 35.8
17:20 1012 29.88 841 24.83 25.8 78.4 19 0.7 33.2
17:25 1012 29.88 841 24.83 25.7 78.3 18 -0.2 31.6
17:30 1012 29.88 841 24.83 25.8 78.4 17 -0.7 30.8
17:35 1012 29.88 841 24.83 25.9 78.7 17 -0.5 31
17:40 1012 29.88 841 24.83 26 78.8 19 0.9 33.6
17:45 1012 29.88 841 24.83 26.3 79.3 19 0.7 33.3
17:50 1012 29.88 841 24.83 26.8 80.3 18 0.5 32.9
17:55 1012 29.88 841 24.83 27.1 80.9 17 0.3 32.5
18:00 1012 29.88 841 24.83 27.6 81.6 17 1 33.8
18:05 1012 29.88 841 24.83 27.2 80.9 17 0 32.1
18:10 1012 29.88 841 24.83 26.9 80.5 18 0.6 33.1
18:15 1012 29.88 841 24.83 26.8 80.2 19 1.4 34.5
18:20 1012 29.88 841 24.83 26.2 79.2 19 1.1 33.9
18:25 1012 29.88 841 24.83 26.1 78.9 19 1.3 34.3
18:30 1012 29.88 841 24.83 25.6 78.1 21 1.9 35.4
18:35 1012 29.88 841 24.83 25.3 77.5 21 1.4 34.5
18:40 1012 29.88 841 24.83 25.4 77.7 21 1.8 35.3
18:45 1012 29.88 841 24.83 25.7 78.2 20 1.7 35
18:50 1012 29.88 841 24.83 25.8 78.4 19 1 33.8
18:55 1012 29.88 841 24.83 25.6 78.1 18 -0.4 31.2
19:00 1012 29.88 841 24.83 25.2 77.3 18 -0.6 30.9
19:05 1012 29.88 841 24.83 25 77 19 -0.2 31.7
19:10 1012 29.88 841 24.83 24.7 76.5 20 0.5 33
19:15 1012 29.88 841 24.83 24.6 76.2 20 0.6 33
19:20 1012 29.88 841 24.83 24.5 76 21 0.8 33.4
19:25 1012 29.88 841 24.83 24.4 75.9 20 0.3 32.6
19:30 1012 29.88 841 24.83 24.3 75.8 20 0.1 32.2
19:35 1012 29.88 841 24.83 24.2 75.5 21 0.5 32.9
19:40 1012 29.88 841 24.83 23.9 75 22 0.9 33.7
19:45 1012 29.88 841 24.83 23.5 74.3 21 0.5 32.9
19:50 1012 29.88 841 24.83 23.3 74 23 1 33.8
19:55 1012 29.88 841 24.83 23.1 73.6 22 0.2 32.3
20:00 1012 29.88 841 24.83 23 73.3 21 -0.1 31.8
20:05 1012 29.88 841 24.83 23.2 73.7 20 -0.5 31.1
20:10 1012 29.88 841 24.83 23.2 73.8 20 -0.8 30.6
20:15 1012 29.88 841 24.83 22.9 73.3 26 2.5 36.5
20:20 1012 29.88 841 24.83 21.8 71.2 30 3.6 38.6
20:25 1012 29.88 842 24.86 21.2 70.1 33 4.5 40.1
20:30 1013 29.91 842 24.86 20.6 69.2 39 6.2 43.2
20:35 1013 29.91 842 24.86 20.2 68.4 41 6.5 43.8
20:40 1013 29.91 842 24.86 19.9 67.9 42 6.7 44
20:45 1013 29.91 842 24.86 19.7 67.5 43 6.8 44.3
20:50 1013 29.91 842 24.86 19.4 66.9 45 7.2 45
20:55 1013 29.91 842 24.86 19 66.1 46 7.3 45.2
21:00 1013 29.91 842 24.86 18.7 65.6 48 7.5 45.5
21:05 1013 29.91 843 24.89 18.4 65.1 48 7.2 45
21:10 1014 29.94 843 24.89 18.1 64.6 48 7.1 44.8
21:15 1014 29.94 843 24.89 17.8 64.1 49 7.2 45
21:20 1014 29.94 843 24.89 17.4 63.4 50 7.1 44.8
21:25 1014 29.94 843 24.89 17.1 62.7 51 7 44.7
21:30 1014 29.94 843 24.89 16.7 62.1 51 6.7 44.1
21:35 1014 29.94 843 24.89 16.6 62 51 6.6 43.9
21:40 1014 29.94 843 24.89 16.6 61.9 51 6.5 43.6
21:45 1014 29.94 844 24.92 16.6 61.8 53 7.2 44.9
21:50 1014 29.94 844 24.92 15.9 60.6 55 7.1 44.7
21:55 1014 29.94 844 24.92 15.6 60 55 6.7 44
22:00 1014 29.94 844 24.92 15.6 60 55 6.6 44
22:05 1014 29.94 844 24.92 15.6 60.2 55 6.7 44
22:10 1015 29.97 844 24.92 15.7 60.3 55 6.8 44.2
22:15 1015 29.97 844 24.92 15.7 60.2 55 6.6 43.9
22:20 1015 29.97 844 24.92 15.7 60.2 55 6.7 44
22:25 1015 29.97 844 24.92 15.6 60.1 55 6.6 44
22:30 1015 29.97 844 24.92 15.7 60.2 55 6.6 43.9
22:35 1015 29.97 844 24.92 15.7 60.2 55 6.8 44.2
22:40 1015 29.97 844 24.92 15.5 60 55 6.7 44
22:45 1015 29.97 844 24.92 15.6 60.1 54 6.4 43.6
22:50 1015 29.97 844 24.92 15.6 60.2 55 6.7 44.1
22:55 1015 29.97 844 24.92 15.4 59.7 56 6.7 44
23:00 1015 29.97 844 24.92 15.3 59.5 56 6.7 44
23:05 1015 29.97 844 24.92 15.2 59.3 57 6.7 44
23:10 1015 29.97 844 24.92 15.1 59.1 57 6.6 44
23:15 1015 29.97 844 24.92 15 59 58 6.8 44.2
23:20 1015 29.97 844 24.92 14.8 58.7 59 6.9 44.3
23:25 1015 29.97 844 24.92 14.6 58.2 60 6.9 44.4
23:30 1015 29.97 844 24.92 14.4 57.9 60 6.8 44.2
23:35 1015 29.97 844 24.92 14.3 57.7 60 6.7 44.1
23:40 1015 29.97 844 24.92 14.2 57.5 60 6.6 43.9
23:45 1015 29.97 844 24.92 14.2 57.5 60 6.6 43.9
23:50 1015 29.97 844 24.92 14.2 57.5 60 6.5 43.8
23:55 1015 29.97 844 24.92 14.1 57.5 60 6.4 43.6
24:00 1015 29.97 844 24.92 14.1 57.3 60 6.5 43.6